createdAt,value
2022-08-03T00:03:49.017Z,100770.59
2022-08-03T00:08:42.477Z,100789.00
2022-08-03T00:13:36.378Z,100773.16
2022-08-03T00:18:29.846Z,100762.84
2022-08-03T00:23:24.809Z,100789.16
2022-08-03T00:28:17.976Z,100788.16
2022-08-03T00:33:12.725Z,100781.94
2022-08-03T00:38:08.789Z,100782.09
2022-08-03T00:43:06.937Z,100784.97
2022-08-03T00:48:01.944Z,100786.66
2022-08-03T00:52:59.123Z,100775.28
2022-08-03T00:57:52.571Z,100748.66
2022-08-03T01:02:45.941Z,100782.44
2022-08-03T01:07:59.994Z,100792.34
2022-08-03T01:14:00.961Z,100781.22
2022-08-03T01:19:31.476Z,100774.81
2022-08-03T01:24:49.656Z,100773.28
2022-08-03T01:29:50.580Z,100732.13
2022-08-03T01:34:53.848Z,100767.59
2022-08-03T01:39:48.095Z,100762.00
2022-08-03T01:44:45.913Z,100771.28
2022-08-03T01:49:45.941Z,100740.41
2022-08-03T01:54:44.341Z,100770.59
2022-08-03T01:59:40.125Z,100764.22
2022-08-03T02:04:34.844Z,100761.50
2022-08-03T02:09:30.200Z,100760.00
2022-08-03T02:14:24.761Z,100764.88
2022-08-03T02:19:19.097Z,100763.84
2022-08-03T02:24:11.974Z,100760.47
2022-08-03T02:29:12.796Z,100736.53
2022-08-03T02:34:13.197Z,100758.78
2022-08-03T02:39:08.853Z,100754.88
2022-08-03T02:44:08.468Z,100737.69
2022-08-03T02:49:50.776Z,100750.78
2022-08-03T02:54:19.356Z,100767.66
2022-08-03T02:59:14.774Z,100748.84
2022-08-03T03:04:09.023Z,100756.63
2022-08-03T03:09:03.286Z,100754.94
2022-08-03T03:13:58.356Z,100775.91
2022-08-03T03:18:53.128Z,100776.22
2022-08-03T03:23:47.092Z,100744.31
2022-08-03T03:28:40.529Z,100763.75
2022-08-03T03:33:38.636Z,100770.81
2022-08-03T03:38:33.845Z,100783.94
2022-08-03T03:43:27.385Z,100757.78
2022-08-03T03:48:25.716Z,100772.47
2022-08-03T03:53:19.905Z,100764.31
2022-08-03T03:58:14.037Z,100786.25
2022-08-03T04:03:07.701Z,100767.63
2022-08-03T04:08:24.359Z,100776.03
2022-08-03T04:13:19.347Z,100789.94
2022-08-03T04:18:19.978Z,100773.47
2022-08-03T04:23:15.569Z,100778.41
2022-08-03T04:28:30.835Z,100775.34
2022-08-03T04:33:25.262Z,100785.09
2022-08-03T04:38:25.723Z,100795.06
2022-08-03T04:43:20.425Z,100785.09
2022-08-03T04:48:19.191Z,100794.53
2022-08-03T04:53:13.045Z,100813.78
2022-08-03T04:58:07.253Z,100815.47
2022-08-03T05:03:01.237Z,100782.66
2022-08-03T05:07:56.724Z,100823.16
2022-08-03T05:12:52.158Z,100780.28
2022-08-03T05:17:45.400Z,100788.34
2022-08-03T05:22:38.236Z,100831.09
2022-08-03T05:27:31.945Z,100827.38
2022-08-03T05:32:26.039Z,100844.38
2022-08-03T05:37:19.669Z,100836.47
2022-08-03T05:42:16.454Z,100804.50
2022-08-03T05:47:10.618Z,100824.94
2022-08-03T05:52:21.326Z,100802.81
2022-08-03T05:57:15.885Z,100799.41
2022-08-03T06:02:09.939Z,100824.94
2022-08-03T06:07:03.954Z,100845.22
2022-08-03T06:11:58.098Z,100828.31
2022-08-03T06:16:51.631Z,100823.25
2022-08-03T06:21:45.397Z,100836.25
2022-08-03T06:26:40.659Z,100871.00
2022-08-03T06:31:33.835Z,100854.84
2022-08-03T06:36:31.612Z,100863.06
2022-08-03T06:41:26.747Z,100871.00
2022-08-03T06:46:20.697Z,100871.00
2022-08-03T06:51:15.189Z,100882.44
2022-08-03T06:56:10.008Z,100884.28
2022-08-03T07:01:04.074Z,100864.84
2022-08-03T07:05:57.241Z,100882.06
2022-08-03T07:10:51.000Z,100874.06
2022-08-03T07:15:55.508Z,100890.66
2022-08-03T07:20:49.564Z,100872.75
2022-08-03T07:25:43.851Z,100874.59
2022-08-03T07:30:38.197Z,100901.28
2022-08-03T07:35:32.218Z,100895.63
2022-08-03T07:40:27.008Z,100875.50
2022-08-03T07:45:26.551Z,100861.22
2022-08-03T07:50:20.517Z,100885.59
2022-08-03T07:55:18.138Z,100878.38
2022-08-03T08:00:18.101Z,100863.00
2022-08-03T08:05:11.395Z,100844.06
2022-08-03T08:10:08.632Z,100857.97
2022-08-03T08:15:02.389Z,100864.06
2022-08-03T08:19:56.674Z,100862.91
2022-08-03T08:24:51.764Z,100877.09
2022-08-03T08:29:52.651Z,100862.59
2022-08-03T08:34:49.971Z,100878.97
2022-08-03T08:39:44.117Z,100851.13
2022-08-03T08:44:38.232Z,100860.25
2022-08-03T08:49:36.900Z,100874.09
2022-08-03T08:54:32.952Z,100862.13
2022-08-03T08:59:48.366Z,100876.50
2022-08-03T09:04:43.192Z,100857.72
2022-08-03T09:10:10.367Z,100856.56
2022-08-03T09:15:07.812Z,100869.25
2022-08-03T09:20:10.676Z,100853.03
2022-08-03T09:25:24.482Z,100842.56
2022-08-03T09:30:34.251Z,100862.16
2022-08-03T09:35:51.583Z,100838.88
2022-08-03T09:40:42.748Z,100864.16
2022-08-03T09:45:40.064Z,100856.78
2022-08-03T09:51:13.898Z,100842.97
2022-08-03T09:56:34.378Z,100835.34
2022-08-03T10:01:35.538Z,100834.34
2022-08-03T10:06:29.621Z,100818.34
2022-08-03T10:11:37.435Z,100836.09
2022-08-03T10:16:41.887Z,100833.41
2022-08-03T10:21:42.149Z,100820.25
2022-08-03T10:26:39.865Z,100811.25
2022-08-03T10:31:57.591Z,100804.53
2022-08-03T10:36:56.337Z,100810.31
2022-08-03T10:41:50.777Z,100800.69
2022-08-03T10:46:45.501Z,100784.81
2022-08-03T10:51:40.788Z,100796.19
2022-08-03T10:56:51.709Z,100798.19
2022-08-03T11:02:00.255Z,100786.03
2022-08-03T11:07:21.728Z,100789.94
2022-08-03T11:12:43.573Z,100780.69
2022-08-03T11:17:46.758Z,100764.66
2022-08-03T11:22:51.865Z,100767.88
2022-08-03T11:28:12.423Z,100750.50
2022-08-03T11:33:08.981Z,100749.16
2022-08-03T11:38:07.709Z,100773.56
2022-08-03T11:43:07.996Z,100759.06
2022-08-03T11:48:14.680Z,100764.91
2022-08-03T11:53:09.239Z,100752.63
2022-08-03T11:59:02.756Z,100747.94
2022-08-03T12:03:23.016Z,100715.88
2022-08-03T12:08:20.091Z,100725.53
2022-08-03T12:14:26.894Z,100681.84
2022-08-03T12:18:27.329Z,100729.22
2022-08-03T12:23:21.171Z,100720.16
2022-08-03T12:28:35.998Z,100703.41
2022-08-03T12:33:31.150Z,100729.91
2022-08-03T12:38:25.368Z,100724.72
2022-08-03T12:43:19.093Z,100722.84
2022-08-03T12:48:13.371Z,100711.72
2022-08-03T12:53:09.216Z,100706.16
2022-08-03T12:58:07.541Z,100710.91
2022-08-03T13:03:38.366Z,100691.03
2022-08-03T13:08:24.139Z,100681.44
2022-08-03T13:13:18.297Z,100695.13
2022-08-03T13:18:12.242Z,100684.97
2022-08-03T13:23:13.006Z,100677.47
2022-08-03T13:28:17.361Z,100674.94
2022-08-03T13:33:09.811Z,100670.41
2022-08-03T13:38:03.603Z,100669.75
2022-08-03T13:42:58.032Z,100648.66
2022-08-03T13:47:51.419Z,100657.63
2022-08-03T13:52:46.872Z,100646.34
2022-08-03T13:58:03.614Z,100653.28
2022-08-03T14:02:55.321Z,100660.53
2022-08-03T14:07:53.013Z,100655.78
2022-08-03T14:12:52.305Z,100637.44
2022-08-03T14:17:49.852Z,100622.97
2022-08-03T14:22:44.341Z,100598.72
2022-08-03T14:27:41.435Z,100628.91
2022-08-03T14:32:35.768Z,100624.53
2022-08-03T14:37:30.446Z,100624.84
2022-08-03T14:42:24.797Z,100597.53
2022-08-03T14:47:22.034Z,100611.19
2022-08-03T14:52:19.259Z,100632.63
2022-08-03T14:57:17.129Z,100602.81
2022-08-03T15:02:23.343Z,100601.31
2022-08-03T15:07:23.033Z,100596.09
2022-08-03T15:12:21.480Z,100565.78
2022-08-03T15:17:20.863Z,100583.63
2022-08-03T15:22:20.615Z,100554.50
2022-08-03T15:27:30.085Z,100555.69
2022-08-03T15:32:28.580Z,100560.91
2022-08-03T15:37:27.078Z,100572.34
2022-08-03T15:42:28.024Z,100570.66
2022-08-03T15:47:27.779Z,100537.97
2022-08-03T15:52:25.360Z,100544.22
2022-08-03T15:57:19.081Z,100556.69
2022-08-03T16:02:16.658Z,100554.00
2022-08-03T16:07:16.839Z,100552.69
2022-08-03T16:12:16.875Z,100548.78
2022-08-03T16:17:16.707Z,100538.53
2022-08-03T16:22:14.951Z,100555.72
2022-08-03T16:27:37.419Z,100532.78
2022-08-03T16:32:32.423Z,100527.06
2022-08-03T16:37:38.576Z,100543.09
2022-08-03T16:42:38.415Z,100539.88
2022-08-03T16:47:34.538Z,100529.75
2022-08-03T16:52:34.356Z,100531.47
2022-08-03T16:57:58.903Z,100514.78
2022-08-03T17:02:58.337Z,100536.34
2022-08-03T17:07:56.689Z,100507.22
2022-08-03T17:12:59.916Z,100530.94
2022-08-03T17:18:09.513Z,100529.28
2022-08-03T17:23:42.420Z,100497.09
2022-08-03T17:28:50.106Z,100532.66
2022-08-03T17:33:57.349Z,100527.56
2022-08-03T17:38:59.204Z,100517.00
2022-08-03T17:44:15.491Z,100530.63
2022-08-03T17:49:25.187Z,100542.09
2022-08-03T17:55:54.862Z,100540.53
2022-08-03T18:00:36.675Z,100545.09
2022-08-03T18:06:11.943Z,100545.94
2022-08-03T18:11:14.876Z,100568.84
2022-08-03T18:16:21.255Z,100531.13
2022-08-03T18:21:20.408Z,100544.78
2022-08-03T18:26:18.535Z,100518.69
2022-08-03T18:32:00.299Z,100546.97
2022-08-03T18:36:31.793Z,100526.44
2022-08-03T18:41:32.325Z,100544.78
2022-08-03T18:46:29.985Z,100553.34
2022-08-03T18:51:43.313Z,100539.22
2022-08-03T18:56:40.041Z,100556.56
2022-08-03T19:01:59.160Z,100583.19
2022-08-03T19:07:03.130Z,100571.03
2022-08-03T19:12:30.687Z,100576.78
2022-08-03T19:17:30.965Z,100584.00
2022-08-03T19:22:27.325Z,100584.69
2022-08-03T19:27:26.945Z,100599.84
2022-08-03T19:32:22.320Z,100605.25
2022-08-03T19:37:18.006Z,100586.72
2022-08-03T19:42:23.079Z,100599.00
2022-08-03T19:47:44.024Z,100612.97
2022-08-03T19:52:39.136Z,100574.06
2022-08-03T19:57:34.736Z,100623.44
2022-08-03T20:02:29.758Z,100605.91
2022-08-03T20:07:23.821Z,100608.44
2022-08-03T20:12:19.534Z,100625.97
2022-08-03T20:17:22.691Z,100634.06
2022-08-03T20:22:39.332Z,100639.47
2022-08-03T20:28:06.878Z,100629.00
2022-08-03T20:32:53.498Z,100613.84
2022-08-03T20:37:47.745Z,100620.56
2022-08-03T20:42:39.991Z,100649.22
2022-08-03T20:47:35.944Z,100630.50
2022-08-03T20:52:33.569Z,100629.69
2022-08-03T20:57:27.731Z,100637.41
2022-08-03T21:02:29.766Z,100626.63
2022-08-03T21:08:04.081Z,100629.69
2022-08-03T21:13:14.914Z,100640.28
2022-08-03T21:18:15.133Z,100626.31
2022-08-03T21:23:12.161Z,100623.94
2022-08-03T21:28:27.477Z,100634.53
2022-08-03T21:33:22.365Z,100631.19
2022-08-03T21:38:19.776Z,100620.75
2022-08-03T21:43:13.857Z,100652.44
2022-08-03T21:48:10.364Z,100654.09
2022-08-03T21:53:04.609Z,100664.72
2022-08-03T21:58:05.504Z,100625.78
2022-08-03T22:03:15.233Z,100647.19
2022-08-03T22:08:14.191Z,100657.78
2022-08-03T22:13:07.839Z,100651.06
2022-08-03T22:18:03.744Z,100683.09
2022-08-03T22:23:02.327Z,100666.25
2022-08-03T22:27:56.830Z,100683.28
2022-08-03T22:32:53.494Z,100704.16
2022-08-03T22:37:49.920Z,100697.63
2022-08-03T22:42:47.777Z,100701.31
2022-08-03T22:47:43.028Z,100713.97
2022-08-03T22:52:38.616Z,100682.25
2022-08-03T22:57:33.925Z,100688.66
2022-08-03T23:02:30.137Z,100695.06
2022-08-03T23:07:32.163Z,100714.47
2022-08-03T23:12:26.680Z,100706.38
2022-08-03T23:17:22.095Z,100714.31
2022-08-03T23:22:29.429Z,100710.28
2022-08-03T23:27:25.192Z,100715.16
2022-08-03T23:32:21.331Z,100714.31
2022-08-03T23:37:16.372Z,100701.97
2022-08-03T23:42:12.147Z,100697.75
2022-08-03T23:47:06.739Z,100693.38
2022-08-03T23:52:29.144Z,100727.44
2022-08-03T23:58:11.074Z,100710.28
